sensor_id;sensor_type;location;lat;lon;timestamp;P1;durP1;ratioP1;P2;durP2;ratioP2
17566;SDS011;8901;52.088;5.084;2024-02-16T00:01:00;8.67;;;8.13;;
17566;SDS011;8901;52.088;5.084;2024-02-16T00:03:28;8.43;;;7.93;;
17566;SDS011;8901;52.088;5.084;2024-02-16T00:05:55;8.40;;;7.80;;
17566;SDS011;8901;52.088;5.084;2024-02-16T00:08:22;8.73;;;8.03;;
17566;SDS011;8901;52.088;5.084;2024-02-16T00:10:50;8.50;;;7.90;;
17566;SDS011;8901;52.088;5.084;2024-02-16T00:13:17;8.13;;;7.63;;
17566;SDS011;8901;52.088;5.084;2024-02-16T00:15:45;8.67;;;7.53;;
17566;SDS011;8901;52.088;5.084;2024-02-16T00:18:14;8.60;;;7.80;;
17566;SDS011;8901;52.088;5.084;2024-02-16T00:20:42;7.80;;;7.30;;
17566;SDS011;8901;52.088;5.084;2024-02-16T00:23:11;8.40;;;7.90;;
17566;SDS011;8901;52.088;5.084;2024-02-16T00:25:38;8.47;;;7.83;;
17566;SDS011;8901;52.088;5.084;2024-02-16T00:28:07;8.50;;;7.80;;
17566;SDS011;8901;52.088;5.084;2024-02-16T00:30:35;7.87;;;7.37;;
17566;SDS011;8901;52.088;5.084;2024-02-16T00:33:03;8.17;;;7.63;;
17566;SDS011;8901;52.088;5.084;2024-02-16T00:35:33;8.80;;;8.00;;
17566;SDS011;8901;52.088;5.084;2024-02-16T00:38:00;8.70;;;8.10;;
17566;SDS011;8901;52.088;5.084;2024-02-16T00:40:28;8.07;;;7.47;;
17566;SDS011;8901;52.088;5.084;2024-02-16T00:42:55;8.23;;;7.70;;
17566;SDS011;8901;52.088;5.084;2024-02-16T00:45:23;7.80;;;7.30;;
17566;SDS011;8901;52.088;5.084;2024-02-16T00:47:51;8.90;;;8.10;;
17566;SDS011;8901;52.088;5.084;2024-02-16T00:50:18;8.70;;;8.10;;
17566;SDS011;8901;52.088;5.084;2024-02-16T00:52:47;8.20;;;7.60;;
17566;SDS011;8901;52.088;5.084;2024-02-16T00:55:14;9.07;;;8.27;;
17566;SDS011;8901;52.088;5.084;2024-02-16T00:57:41;8.53;;;7.93;;
17566;SDS011;8901;52.088;5.084;2024-02-16T01:00:09;8.63;;;8.00;;
17566;SDS011;8901;52.088;5.084;2024-02-16T01:02:37;8.17;;;7.57;;
17566;SDS011;8901;52.088;5.084;2024-02-16T01:05:04;8.90;;;8.10;;
17566;SDS011;8901;52.088;5.084;2024-02-16T01:07:35;10.63;;;8.50;;
17566;SDS011;8901;52.088;5.084;2024-02-16T01:10:06;8.63;;;8.00;;
17566;SDS011;8901;52.088;5.084;2024-02-16T01:12:34;8.47;;;7.70;;
17566;SDS011;8901;52.088;5.084;2024-02-16T01:15:02;8.53;;;7.73;;
17566;SDS011;8901;52.088;5.084;2024-02-16T01:17:29;8.37;;;7.77;;
17566;SDS011;8901;52.088;5.084;2024-02-16T01:19:57;8.20;;;7.60;;
17566;SDS011;8901;52.088;5.084;2024-02-16T01:22:25;8.50;;;7.90;;
17566;SDS011;8901;52.088;5.084;2024-02-16T01:24:54;8.30;;;7.80;;
17566;SDS011;8901;52.088;5.084;2024-02-16T01:27:23;8.67;;;8.00;;
17566;SDS011;8901;52.088;5.084;2024-02-16T01:29:52;9.33;;;8.53;;
17566;SDS011;8901;52.088;5.084;2024-02-16T01:32:20;8.50;;;7.90;;
17566;SDS011;8901;52.088;5.084;2024-02-16T01:34:47;8.90;;;8.17;;
17566;SDS011;8901;52.088;5.084;2024-02-16T01:37:15;8.53;;;7.93;;
17566;SDS011;8901;52.088;5.084;2024-02-16T01:39:42;8.53;;;7.93;;
17566;SDS011;8901;52.088;5.084;2024-02-16T01:42:09;8.70;;;8.00;;
17566;SDS011;8901;52.088;5.084;2024-02-16T01:44:39;8.80;;;8.07;;
17566;SDS011;8901;52.088;5.084;2024-02-16T01:47:07;8.30;;;7.70;;
17566;SDS011;8901;52.088;5.084;2024-02-16T01:49:34;8.67;;;8.07;;
17566;SDS011;8901;52.088;5.084;2024-02-16T01:52:02;8.87;;;8.27;;
17566;SDS011;8901;52.088;5.084;2024-02-16T01:54:29;8.60;;;8.00;;
17566;SDS011;8901;52.088;5.084;2024-02-16T01:56:56;8.20;;;7.60;;
17566;SDS011;8901;52.088;5.084;2024-02-16T01:59:24;8.47;;;7.87;;
17566;SDS011;8901;52.088;5.084;2024-02-16T02:01:53;8.20;;;7.70;;
17566;SDS011;8901;52.088;5.084;2024-02-16T02:04:20;8.80;;;8.20;;
17566;SDS011;8901;52.088;5.084;2024-02-16T02:06:47;8.50;;;7.90;;
17566;SDS011;8901;52.088;5.084;2024-02-16T02:09:15;8.70;;;8.13;;
17566;SDS011;8901;52.088;5.084;2024-02-16T02:11:42;9.10;;;8.40;;
17566;SDS011;8901;52.088;5.084;2024-02-16T02:14:09;8.80;;;8.20;;
17566;SDS011;8901;52.088;5.084;2024-02-16T02:16:36;8.33;;;7.73;;
17566;SDS011;8901;52.088;5.084;2024-02-16T02:19:05;8.63;;;7.93;;
17566;SDS011;8901;52.088;5.084;2024-02-16T02:21:33;8.37;;;7.77;;
17566;SDS011;8901;52.088;5.084;2024-02-16T02:24:01;9.23;;;8.50;;
17566;SDS011;8901;52.088;5.084;2024-02-16T02:26:29;8.67;;;8.07;;
17566;SDS011;8901;52.088;5.084;2024-02-16T02:28:57;8.80;;;8.07;;
17566;SDS011;8901;52.088;5.084;2024-02-16T02:31:24;8.87;;;8.27;;
17566;SDS011;8901;52.088;5.084;2024-02-16T02:33:51;9.00;;;8.30;;
17566;SDS011;8901;52.088;5.084;2024-02-16T02:36:19;9.00;;;8.40;;
17566;SDS011;8901;52.088;5.084;2024-02-16T02:38:47;9.07;;;8.47;;
17566;SDS011;8901;52.088;5.084;2024-02-16T02:41:17;8.80;;;8.20;;
17566;SDS011;8901;52.088;5.084;2024-02-16T02:43:45;8.90;;;8.30;;
17566;SDS011;8901;52.088;5.084;2024-02-16T02:46:14;8.77;;;8.17;;
17566;SDS011;8901;52.088;5.084;2024-02-16T02:48:42;9.20;;;8.50;;
17566;SDS011;8901;52.088;5.084;2024-02-16T02:51:09;8.97;;;8.37;;
17566;SDS011;8901;52.088;5.084;2024-02-16T02:53:37;8.93;;;8.33;;
17566;SDS011;8901;52.088;5.084;2024-02-16T02:56:04;9.40;;;8.70;;
17566;SDS011;8901;52.088;5.084;2024-02-16T02:58:34;8.90;;;8.27;;
17566;SDS011;8901;52.088;5.084;2024-02-16T03:01:03;9.00;;;8.40;;
17566;SDS011;8901;52.088;5.084;2024-02-16T03:03:33;9.50;;;8.80;;
17566;SDS011;8901;52.088;5.084;2024-02-16T03:06:00;9.77;;;9.17;;
17566;SDS011;8901;52.088;5.084;2024-02-16T03:08:28;9.80;;;8.83;;
17566;SDS011;8901;52.088;5.084;2024-02-16T03:10:56;9.17;;;8.57;;
17566;SDS011;8901;52.088;5.084;2024-02-16T03:13:25;8.17;;;7.67;;
17566;SDS011;8901;52.088;5.084;2024-02-16T03:15:54;8.77;;;8.17;;
17566;SDS011;8901;52.088;5.084;2024-02-16T03:18:23;8.30;;;7.70;;
17566;SDS011;8901;52.088;5.084;2024-02-16T03:20:50;8.93;;;8.33;;
17566;SDS011;8901;52.088;5.084;2024-02-16T03:23:18;8.70;;;8.10;;
17566;SDS011;8901;52.088;5.084;2024-02-16T03:25:46;8.57;;;8.00;;
17566;SDS011;8901;52.088;5.084;2024-02-16T03:28:13;8.80;;;8.30;;
17566;SDS011;8901;52.088;5.084;2024-02-16T03:30:41;9.00;;;8.43;;
17566;SDS011;8901;52.088;5.084;2024-02-16T03:33:09;8.67;;;7.97;;
17566;SDS011;8901;52.088;5.084;2024-02-16T03:35:37;9.27;;;8.57;;
17566;SDS011;8901;52.088;5.084;2024-02-16T03:38:05;9.17;;;8.43;;
17566;SDS011;8901;52.088;5.084;2024-02-16T03:40:33;8.67;;;8.10;;
17566;SDS011;8901;52.088;5.084;2024-02-16T03:43:00;8.70;;;8.10;;
17566;SDS011;8901;52.088;5.084;2024-02-16T03:45:27;8.67;;;8.07;;
17566;SDS011;8901;52.088;5.084;2024-02-16T03:47:55;8.60;;;7.90;;
17566;SDS011;8901;52.088;5.084;2024-02-16T03:50:23;8.57;;;8.03;;
17566;SDS011;8901;52.088;5.084;2024-02-16T03:52:51;9.33;;;8.63;;
17566;SDS011;8901;52.088;5.084;2024-02-16T03:55:19;8.40;;;7.80;;
17566;SDS011;8901;52.088;5.084;2024-02-16T03:57:46;8.80;;;8.10;;
17566;SDS011;8901;52.088;5.084;2024-02-16T04:00:14;9.33;;;8.63;;
17566;SDS011;8901;52.088;5.084;2024-02-16T04:02:41;8.40;;;7.80;;
17566;SDS011;8901;52.088;5.084;2024-02-16T04:05:08;8.47;;;7.93;;
17566;SDS011;8901;52.088;5.084;2024-02-16T04:07:37;8.80;;;8.20;;
17566;SDS011;8901;52.088;5.084;2024-02-16T04:10:05;8.83;;;8.23;;
17566;SDS011;8901;52.088;5.084;2024-02-16T04:12:32;8.63;;;8.03;;
17566;SDS011;8901;52.088;5.084;2024-02-16T04:14:59;8.87;;;8.27;;
17566;SDS011;8901;52.088;5.084;2024-02-16T04:17:26;8.60;;;8.00;;
17566;SDS011;8901;52.088;5.084;2024-02-16T04:19:54;8.27;;;7.77;;
17566;SDS011;8901;52.088;5.084;2024-02-16T04:22:21;8.90;;;8.30;;
17566;SDS011;8901;52.088;5.084;2024-02-16T04:24:50;9.10;;;8.37;;
17566;SDS011;8901;52.088;5.084;2024-02-16T04:27:17;8.77;;;8.17;;
17566;SDS011;8901;52.088;5.084;2024-02-16T04:29:44;9.40;;;8.60;;
17566;SDS011;8901;52.088;5.084;2024-02-16T04:32:12;8.67;;;7.97;;
17566;SDS011;8901;52.088;5.084;2024-02-16T04:34:39;8.40;;;7.90;;
17566;SDS011;8901;52.088;5.084;2024-02-16T04:37:06;8.73;;;8.13;;
17566;SDS011;8901;52.088;5.084;2024-02-16T04:39:33;8.90;;;8.30;;
17566;SDS011;8901;52.088;5.084;2024-02-16T04:42:04;9.20;;;8.60;;
17566;SDS011;8901;52.088;5.084;2024-02-16T04:44:31;8.63;;;8.13;;
17566;SDS011;8901;52.088;5.084;2024-02-16T04:46:58;8.90;;;8.30;;
17566;SDS011;8901;52.088;5.084;2024-02-16T04:49:25;8.70;;;8.20;;
17566;SDS011;8901;52.088;5.084;2024-02-16T04:51:52;9.23;;;8.63;;
17566;SDS011;8901;52.088;5.084;2024-02-16T04:54:19;9.13;;;8.53;;
17566;SDS011;8901;52.088;5.084;2024-02-16T04:56:47;9.50;;;8.70;;
17566;SDS011;8901;52.088;5.084;2024-02-16T04:59:16;9.43;;;8.80;;
17566;SDS011;8901;52.088;5.084;2024-02-16T05:01:44;9.70;;;8.90;;
17566;SDS011;8901;52.088;5.084;2024-02-16T05:04:11;9.30;;;8.60;;
17566;SDS011;8901;52.088;5.084;2024-02-16T05:06:42;9.50;;;8.80;;
17566;SDS011;8901;52.088;5.084;2024-02-16T05:09:10;8.90;;;8.33;;
17566;SDS011;8901;52.088;5.084;2024-02-16T05:11:41;9.20;;;8.50;;
17566;SDS011;8901;52.088;5.084;2024-02-16T05:14:09;8.93;;;8.27;;
17566;SDS011;8901;52.088;5.084;2024-02-16T05:16:42;9.00;;;8.37;;
17566;SDS011;8901;52.088;5.084;2024-02-16T05:19:09;9.17;;;8.47;;
17566;SDS011;8901;52.088;5.084;2024-02-16T05:21:36;8.97;;;8.30;;
17566;SDS011;8901;52.088;5.084;2024-02-16T05:24:04;8.83;;;8.23;;
17566;SDS011;8901;52.088;5.084;2024-02-16T05:26:31;8.80;;;8.20;;
17566;SDS011;8901;52.088;5.084;2024-02-16T05:28:59;8.83;;;8.23;;
17566;SDS011;8901;52.088;5.084;2024-02-16T05:31:27;8.93;;;8.13;;
17566;SDS011;8901;52.088;5.084;2024-02-16T05:33:57;9.23;;;8.63;;
17566;SDS011;8901;52.088;5.084;2024-02-16T05:36:24;9.60;;;8.90;;
17566;SDS011;8901;52.088;5.084;2024-02-16T05:38:55;8.77;;;8.17;;
17566;SDS011;8901;52.088;5.084;2024-02-16T05:41:31;9.73;;;8.87;;
17566;SDS011;8901;52.088;5.084;2024-02-16T05:43:58;8.63;;;7.87;;
17566;SDS011;8901;52.088;5.084;2024-02-16T05:46:26;8.40;;;7.90;;
17566;SDS011;8901;52.088;5.084;2024-02-16T05:48:53;8.77;;;8.17;;
17566;SDS011;8901;52.088;5.084;2024-02-16T05:51:22;8.83;;;8.13;;
17566;SDS011;8901;52.088;5.084;2024-02-16T05:53:49;8.97;;;8.40;;
17566;SDS011;8901;52.088;5.084;2024-02-16T05:56:16;8.97;;;8.33;;
17566;SDS011;8901;52.088;5.084;2024-02-16T05:58:43;9.20;;;8.50;;
17566;SDS011;8901;52.088;5.084;2024-02-16T06:01:11;8.70;;;8.10;;
17566;SDS011;8901;52.088;5.084;2024-02-16T06:03:40;9.33;;;8.53;;
17566;SDS011;8901;52.088;5.084;2024-02-16T06:06:09;8.57;;;8.03;;
17566;SDS011;8901;52.088;5.084;2024-02-16T06:08:39;8.33;;;7.77;;
17566;SDS011;8901;52.088;5.084;2024-02-16T06:11:07;8.93;;;8.20;;
17566;SDS011;8901;52.088;5.084;2024-02-16T06:13:34;8.30;;;7.80;;
17566;SDS011;8901;52.088;5.084;2024-02-16T06:16:04;8.90;;;8.30;;
17566;SDS011;8901;52.088;5.084;2024-02-16T06:18:33;8.90;;;8.30;;
17566;SDS011;8901;52.088;5.084;2024-02-16T06:21:01;9.43;;;8.70;;
17566;SDS011;8901;52.088;5.084;2024-02-16T06:23:30;9.17;;;8.47;;
17566;SDS011;8901;52.088;5.084;2024-02-16T06:25:59;9.60;;;8.90;;
17566;SDS011;8901;52.088;5.084;2024-02-16T06:28:26;9.43;;;8.73;;
17566;SDS011;8901;52.088;5.084;2024-02-16T06:30:54;8.90;;;8.10;;
17566;SDS011;8901;52.088;5.084;2024-02-16T06:33:21;9.47;;;8.57;;
17566;SDS011;8901;52.088;5.084;2024-02-16T06:35:51;8.43;;;7.73;;
17566;SDS011;8901;52.088;5.084;2024-02-16T06:38:18;8.57;;;7.97;;
17566;SDS011;8901;52.088;5.084;2024-02-16T06:40:45;8.50;;;7.80;;
17566;SDS011;8901;52.088;5.084;2024-02-16T06:43:15;8.63;;;8.00;;
17566;SDS011;8901;52.088;5.084;2024-02-16T06:45:42;7.90;;;7.40;;
17566;SDS011;8901;52.088;5.084;2024-02-16T06:48:09;8.87;;;8.07;;
17566;SDS011;8901;52.088;5.084;2024-02-16T06:50:37;8.93;;;8.30;;
17566;SDS011;8901;52.088;5.084;2024-02-16T06:53:05;9.03;;;8.33;;
17566;SDS011;8901;52.088;5.084;2024-02-16T06:55:32;8.70;;;7.90;;
17566;SDS011;8901;52.088;5.084;2024-02-16T06:57:59;9.30;;;8.07;;
17566;SDS011;8901;52.088;5.084;2024-02-16T07:00:29;10.73;;;8.33;;
17566;SDS011;8901;52.088;5.084;2024-02-16T07:02:56;8.60;;;8.00;;
17566;SDS011;8901;52.088;5.084;2024-02-16T07:05:24;8.90;;;8.03;;
17566;SDS011;8901;52.088;5.084;2024-02-16T07:07:53;9.10;;;8.30;;
17566;SDS011;8901;52.088;5.084;2024-02-16T07:10:20;8.70;;;8.20;;
17566;SDS011;8901;52.088;5.084;2024-02-16T07:12:47;9.73;;;8.63;;
17566;SDS011;8901;52.088;5.084;2024-02-16T07:15:14;9.20;;;8.50;;
17566;SDS011;8901;52.088;5.084;2024-02-16T07:17:43;9.53;;;8.47;;
17566;SDS011;8901;52.088;5.084;2024-02-16T07:20:10;12.07;;;9.00;;
17566;SDS011;8901;52.088;5.084;2024-02-16T07:22:40;8.53;;;7.83;;
17566;SDS011;8901;52.088;5.084;2024-02-16T07:25:08;9.60;;;8.77;;
17566;SDS011;8901;52.088;5.084;2024-02-16T07:27:37;9.40;;;8.43;;
17566;SDS011;8901;52.088;5.084;2024-02-16T07:30:05;9.27;;;8.30;;
17566;SDS011;8901;52.088;5.084;2024-02-16T07:32:32;9.83;;;8.93;;
17566;SDS011;8901;52.088;5.084;2024-02-16T07:35:00;9.43;;;8.73;;
17566;SDS011;8901;52.088;5.084;2024-02-16T07:37:28;9.87;;;8.83;;
17566;SDS011;8901;52.088;5.084;2024-02-16T07:39:55;8.93;;;8.33;;
17566;SDS011;8901;52.088;5.084;2024-02-16T07:42:23;9.90;;;9.00;;
17566;SDS011;8901;52.088;5.084;2024-02-16T07:44:51;8.93;;;8.23;;
17566;SDS011;8901;52.088;5.084;2024-02-16T07:47:19;9.37;;;8.43;;
17566;SDS011;8901;52.088;5.084;2024-02-16T07:49:47;8.93;;;8.13;;
17566;SDS011;8901;52.088;5.084;2024-02-16T07:52:16;9.00;;;8.30;;
17566;SDS011;8901;52.088;5.084;2024-02-16T07:54:43;9.23;;;8.40;;
17566;SDS011;8901;52.088;5.084;2024-02-16T07:57:10;9.10;;;8.43;;
17566;SDS011;8901;52.088;5.084;2024-02-16T07:59:37;9.17;;;8.47;;
17566;SDS011;8901;52.088;5.084;2024-02-16T08:02:05;9.60;;;8.80;;
17566;SDS011;8901;52.088;5.084;2024-02-16T08:04:34;10.07;;;9.03;;
17566;SDS011;8901;52.088;5.084;2024-02-16T08:07:02;9.53;;;8.80;;
17566;SDS011;8901;52.088;5.084;2024-02-16T08:09:30;9.27;;;8.57;;
17566;SDS011;8901;52.088;5.084;2024-02-16T08:11:58;10.53;;;9.73;;
17566;SDS011;8901;52.088;5.084;2024-02-16T08:14:30;9.60;;;8.70;;
17566;SDS011;8901;52.088;5.084;2024-02-16T08:16:57;10.10;;;9.17;;
17566;SDS011;8901;52.088;5.084;2024-02-16T08:19:25;9.43;;;8.83;;
17566;SDS011;8901;52.088;5.084;2024-02-16T08:21:58;9.03;;;8.43;;
17566;SDS011;8901;52.088;5.084;2024-02-16T08:24:25;9.47;;;8.77;;
17566;SDS011;8901;52.088;5.084;2024-02-16T08:26:54;8.43;;;7.83;;
17566;SDS011;8901;52.088;5.084;2024-02-16T08:29:21;9.77;;;8.80;;
17566;SDS011;8901;52.088;5.084;2024-02-16T08:31:50;9.70;;;8.70;;
17566;SDS011;8901;52.088;5.084;2024-02-16T08:34:18;9.87;;;8.97;;
17566;SDS011;8901;52.088;5.084;2024-02-16T08:36:45;9.57;;;8.77;;
17566;SDS011;8901;52.088;5.084;2024-02-16T08:39:12;10.97;;;9.07;;
17566;SDS011;8901;52.088;5.084;2024-02-16T08:41:40;11.07;;;8.67;;
17566;SDS011;8901;52.088;5.084;2024-02-16T08:44:10;9.07;;;8.33;;
17566;SDS011;8901;52.088;5.084;2024-02-16T08:46:38;8.83;;;7.90;;
17566;SDS011;8901;52.088;5.084;2024-02-16T08:49:05;10.27;;;8.13;;
17566;SDS011;8901;52.088;5.084;2024-02-16T08:51:34;9.27;;;8.47;;
17566;SDS011;8901;52.088;5.084;2024-02-16T08:54:01;8.90;;;8.30;;
17566;SDS011;8901;52.088;5.084;2024-02-16T08:56:30;9.27;;;8.57;;
17566;SDS011;8901;52.088;5.084;2024-02-16T08:58:57;9.27;;;8.37;;
17566;SDS011;8901;52.088;5.084;2024-02-16T09:01:31;9.67;;;8.90;;
17566;SDS011;8901;52.088;5.084;2024-02-16T09:03:58;8.80;;;8.20;;
17566;SDS011;8901;52.088;5.084;2024-02-16T09:06:26;9.73;;;8.73;;
17566;SDS011;8901;52.088;5.084;2024-02-16T09:08:53;9.10;;;8.40;;
17566;SDS011;8901;52.088;5.084;2024-02-16T09:11:20;8.97;;;8.27;;
17566;SDS011;8901;52.088;5.084;2024-02-16T09:13:48;9.57;;;8.87;;
17566;SDS011;8901;52.088;5.084;2024-02-16T09:16:15;9.63;;;8.63;;
17566;SDS011;8901;52.088;5.084;2024-02-16T09:18:44;10.60;;;9.30;;
17566;SDS011;8901;52.088;5.084;2024-02-16T09:21:13;10.87;;;8.53;;
17566;SDS011;8901;52.088;5.084;2024-02-16T09:23:40;9.17;;;8.43;;
17566;SDS011;8901;52.088;5.084;2024-02-16T09:26:07;9.63;;;8.80;;
17566;SDS011;8901;52.088;5.084;2024-02-16T09:28:38;10.00;;;9.20;;
17566;SDS011;8901;52.088;5.084;2024-02-16T09:31:06;9.23;;;8.27;;
17566;SDS011;8901;52.088;5.084;2024-02-16T09:33:34;9.60;;;8.90;;
17566;SDS011;8901;52.088;5.084;2024-02-16T09:36:03;8.80;;;8.20;;
17566;SDS011;8901;52.088;5.084;2024-02-16T09:38:30;11.37;;;8.90;;
17566;SDS011;8901;52.088;5.084;2024-02-16T09:40:58;9.07;;;8.30;;
17566;SDS011;8901;52.088;5.084;2024-02-16T09:43:27;9.27;;;8.40;;
17566;SDS011;8901;52.088;5.084;2024-02-16T09:45:54;9.87;;;8.90;;
17566;SDS011;8901;52.088;5.084;2024-02-16T09:48:22;8.90;;;8.10;;
17566;SDS011;8901;52.088;5.084;2024-02-16T09:50:50;9.80;;;8.80;;
17566;SDS011;8901;52.088;5.084;2024-02-16T09:53:19;9.17;;;8.47;;
17566;SDS011;8901;52.088;5.084;2024-02-16T09:55:47;9.33;;;8.73;;
17566;SDS011;8901;52.088;5.084;2024-02-16T09:58:16;9.73;;;8.80;;
17566;SDS011;8901;52.088;5.084;2024-02-16T10:00:47;9.57;;;8.37;;
17566;SDS011;8901;52.088;5.084;2024-02-16T10:03:21;9.13;;;8.20;;
17566;SDS011;8901;52.088;5.084;2024-02-16T10:05:48;9.20;;;8.47;;
17566;SDS011;8901;52.088;5.084;2024-02-16T10:08:15;9.03;;;8.33;;
17566;SDS011;8901;52.088;5.084;2024-02-16T10:10:44;12.77;;;9.30;;
17566;SDS011;8901;52.088;5.084;2024-02-16T10:13:11;10.40;;;9.40;;
17566;SDS011;8901;52.088;5.084;2024-02-16T10:15:39;11.33;;;9.40;;
17566;SDS011;8901;52.088;5.084;2024-02-16T10:18:06;10.13;;;9.10;;
17566;SDS011;8901;52.088;5.084;2024-02-16T10:20:34;10.67;;;9.67;;
17566;SDS011;8901;52.088;5.084;2024-02-16T10:23:02;10.67;;;9.77;;
17566;SDS011;8901;52.088;5.084;2024-02-16T10:25:29;10.97;;;9.87;;
17566;SDS011;8901;52.088;5.084;2024-02-16T10:27:58;11.40;;;10.23;;
17566;SDS011;8901;52.088;5.084;2024-02-16T10:30:29;9.10;;;8.30;;
17566;SDS011;8901;52.088;5.084;2024-02-16T10:32:56;10.30;;;9.33;;
17566;SDS011;8901;52.088;5.084;2024-02-16T10:35:24;11.50;;;10.30;;
17566;SDS011;8901;52.088;5.084;2024-02-16T10:37:52;10.83;;;9.83;;
17566;SDS011;8901;52.088;5.084;2024-02-16T10:40:22;11.50;;;10.13;;
17566;SDS011;8901;52.088;5.084;2024-02-16T10:42:50;10.57;;;9.63;;
17566;SDS011;8901;52.088;5.084;2024-02-16T10:45:18;12.40;;;10.60;;
17566;SDS011;8901;52.088;5.084;2024-02-16T10:47:47;12.73;;;11.43;;
17566;SDS011;8901;52.088;5.084;2024-02-16T10:50:14;11.70;;;10.50;;
17566;SDS011;8901;52.088;5.084;2024-02-16T10:52:42;12.63;;;10.97;;
17566;SDS011;8901;52.088;5.084;2024-02-16T10:55:11;11.97;;;10.77;;
17566;SDS011;8901;52.088;5.084;2024-02-16T10:57:39;12.80;;;11.33;;
17566;SDS011;8901;52.088;5.084;2024-02-16T11:00:09;20.77;;;11.37;;
17566;SDS011;8901;52.088;5.084;2024-02-16T11:02:56;11.93;;;10.73;;
17566;SDS011;8901;52.088;5.084;2024-02-16T11:05:34;12.07;;;10.83;;
17566;SDS011;8901;52.088;5.084;2024-02-16T11:08:01;11.23;;;10.07;;
17566;SDS011;8901;52.088;5.084;2024-02-16T11:10:29;11.97;;;10.80;;
17566;SDS011;8901;52.088;5.084;2024-02-16T11:13:00;12.03;;;10.93;;
17566;SDS011;8901;52.088;5.084;2024-02-16T11:15:27;10.93;;;9.97;;
17566;SDS011;8901;52.088;5.084;2024-02-16T11:17:57;11.97;;;10.80;;
17566;SDS011;8901;52.088;5.084;2024-02-16T11:20:24;12.77;;;11.60;;
17566;SDS011;8901;52.088;5.084;2024-02-16T11:22:52;11.27;;;10.17;;
17566;SDS011;8901;52.088;5.084;2024-02-16T11:25:19;11.47;;;10.40;;
17566;SDS011;8901;52.088;5.084;2024-02-16T11:27:57;10.80;;;9.70;;
17566;SDS011;8901;52.088;5.084;2024-02-16T11:30:24;16.40;;;10.63;;
17566;SDS011;8901;52.088;5.084;2024-02-16T11:32:51;11.27;;;10.27;;
17566;SDS011;8901;52.088;5.084;2024-02-16T11:35:20;11.87;;;10.70;;
17566;SDS011;8901;52.088;5.084;2024-02-16T11:37:47;10.97;;;10.07;;
17566;SDS011;8901;52.088;5.084;2024-02-16T11:40:16;9.80;;;9.00;;
17566;SDS011;8901;52.088;5.084;2024-02-16T11:42:44;10.23;;;9.33;;
17566;SDS011;8901;52.088;5.084;2024-02-16T11:45:12;11.40;;;10.30;;
17566;SDS011;8901;52.088;5.084;2024-02-16T11:47:40;14.10;;;9.57;;
17566;SDS011;8901;52.088;5.084;2024-02-16T11:50:08;11.57;;;10.47;;
17566;SDS011;8901;52.088;5.084;2024-02-16T11:52:37;10.83;;;9.83;;
17566;SDS011;8901;52.088;5.084;2024-02-16T11:55:07;10.40;;;9.60;;
17566;SDS011;8901;52.088;5.084;2024-02-16T11:57:35;11.00;;;10.00;;
17566;SDS011;8901;52.088;5.084;2024-02-16T12:00:03;11.07;;;10.07;;
17566;SDS011;8901;52.088;5.084;2024-02-16T12:02:34;10.93;;;9.83;;
17566;SDS011;8901;52.088;5.084;2024-02-16T12:05:01;9.67;;;8.73;;
17566;SDS011;8901;52.088;5.084;2024-02-16T12:07:29;8.53;;;7.83;;
17566;SDS011;8901;52.088;5.084;2024-02-16T12:09:59;8.57;;;7.77;;
17566;SDS011;8901;52.088;5.084;2024-02-16T12:12:27;8.40;;;7.60;;
17566;SDS011;8901;52.088;5.084;2024-02-16T12:14:54;8.40;;;7.80;;
17566;SDS011;8901;52.088;5.084;2024-02-16T12:17:22;8.10;;;7.60;;
17566;SDS011;8901;52.088;5.084;2024-02-16T12:19:49;8.40;;;7.70;;
17566;SDS011;8901;52.088;5.084;2024-02-16T12:22:17;7.57;;;7.07;;
17566;SDS011;8901;52.088;5.084;2024-02-16T12:24:45;7.53;;;7.03;;
17566;SDS011;8901;52.088;5.084;2024-02-16T12:27:13;8.03;;;7.47;;
17566;SDS011;8901;52.088;5.084;2024-02-16T12:29:41;7.90;;;7.30;;
17566;SDS011;8901;52.088;5.084;2024-02-16T12:32:09;7.50;;;6.93;;
17566;SDS011;8901;52.088;5.084;2024-02-16T12:34:36;7.50;;;7.00;;
17566;SDS011;8901;52.088;5.084;2024-02-16T12:37:04;8.03;;;7.43;;
17566;SDS011;8901;52.088;5.084;2024-02-16T12:39:33;7.47;;;6.97;;
17566;SDS011;8901;52.088;5.084;2024-02-16T12:42:00;7.57;;;7.03;;
17566;SDS011;8901;52.088;5.084;2024-02-16T12:44:29;7.93;;;7.13;;
17566;SDS011;8901;52.088;5.084;2024-02-16T12:46:56;7.50;;;6.90;;
17566;SDS011;8901;52.088;5.084;2024-02-16T12:49:24;8.00;;;7.50;;
17566;SDS011;8901;52.088;5.084;2024-02-16T12:51:51;7.20;;;6.70;;
17566;SDS011;8901;52.088;5.084;2024-02-16T12:54:19;7.80;;;7.00;;
17566;SDS011;8901;52.088;5.084;2024-02-16T12:56:47;7.60;;;7.10;;
17566;SDS011;8901;52.088;5.084;2024-02-16T12:59:14;6.97;;;6.57;;
17566;SDS011;8901;52.088;5.084;2024-02-16T13:01:43;7.20;;;6.70;;
17566;SDS011;8901;52.088;5.084;2024-02-16T13:04:11;7.30;;;6.80;;
17566;SDS011;8901;52.088;5.084;2024-02-16T13:06:45;7.40;;;6.80;;
17566;SDS011;8901;52.088;5.084;2024-02-16T13:09:12;7.10;;;6.63;;
17566;SDS011;8901;52.088;5.084;2024-02-16T13:11:40;7.40;;;6.90;;
17566;SDS011;8901;52.088;5.084;2024-02-16T13:14:07;7.27;;;6.80;;
17566;SDS011;8901;52.088;5.084;2024-02-16T13:16:35;7.73;;;7.00;;
17566;SDS011;8901;52.088;5.084;2024-02-16T13:19:03;7.33;;;6.80;;
17566;SDS011;8901;52.088;5.084;2024-02-16T13:21:31;7.67;;;7.00;;
17566;SDS011;8901;52.088;5.084;2024-02-16T13:23:58;7.17;;;6.60;;
17566;SDS011;8901;52.088;5.084;2024-02-16T13:26:25;7.10;;;6.50;;
17566;SDS011;8901;52.088;5.084;2024-02-16T13:28:52;7.40;;;6.80;;
17566;SDS011;8901;52.088;5.084;2024-02-16T13:31:20;7.33;;;6.73;;
17566;SDS011;8901;52.088;5.084;2024-02-16T13:33:47;8.13;;;7.40;;
17566;SDS011;8901;52.088;5.084;2024-02-16T13:36:16;8.10;;;7.50;;
17566;SDS011;8901;52.088;5.084;2024-02-16T13:38:43;7.20;;;6.70;;
17566;SDS011;8901;52.088;5.084;2024-02-16T13:41:10;7.57;;;6.97;;
17566;SDS011;8901;52.088;5.084;2024-02-16T13:43:37;7.23;;;6.53;;
17566;SDS011;8901;52.088;5.084;2024-02-16T13:46:05;7.37;;;6.83;;
17566;SDS011;8901;52.088;5.084;2024-02-16T13:48:32;7.87;;;7.17;;
17566;SDS011;8901;52.088;5.084;2024-02-16T13:51:02;8.33;;;7.63;;
17566;SDS011;8901;52.088;5.084;2024-02-16T13:53:34;8.07;;;7.37;;
17566;SDS011;8901;52.088;5.084;2024-02-16T13:56:01;8.00;;;7.30;;
17566;SDS011;8901;52.088;5.084;2024-02-16T13:58:29;7.90;;;7.27;;
17566;SDS011;8901;52.088;5.084;2024-02-16T14:00:56;8.23;;;7.53;;
17566;SDS011;8901;52.088;5.084;2024-02-16T14:03:23;8.53;;;7.80;;
17566;SDS011;8901;52.088;5.084;2024-02-16T14:05:51;8.53;;;7.20;;
17566;SDS011;8901;52.088;5.084;2024-02-16T14:08:18;7.90;;;7.20;;
17566;SDS011;8901;52.088;5.084;2024-02-16T14:10:46;7.97;;;7.37;;
17566;SDS011;8901;52.088;5.084;2024-02-16T14:13:14;7.90;;;7.20;;
17566;SDS011;8901;52.088;5.084;2024-02-16T14:15:42;8.50;;;7.57;;
17566;SDS011;8901;52.088;5.084;2024-02-16T14:18:09;8.47;;;7.60;;
17566;SDS011;8901;52.088;5.084;2024-02-16T14:20:36;8.17;;;7.50;;
17566;SDS011;8901;52.088;5.084;2024-02-16T14:23:04;8.87;;;8.20;;
17566;SDS011;8901;52.088;5.084;2024-02-16T14:25:33;8.70;;;7.90;;
17566;SDS011;8901;52.088;5.084;2024-02-16T14:28:04;8.47;;;7.77;;
17566;SDS011;8901;52.088;5.084;2024-02-16T14:30:32;7.80;;;7.20;;
17566;SDS011;8901;52.088;5.084;2024-02-16T14:32:59;8.47;;;7.83;;
17566;SDS011;8901;52.088;5.084;2024-02-16T14:35:29;8.67;;;7.67;;
17566;SDS011;8901;52.088;5.084;2024-02-16T14:37:56;8.70;;;8.07;;
17566;SDS011;8901;52.088;5.084;2024-02-16T14:40:25;8.90;;;8.07;;
17566;SDS011;8901;52.088;5.084;2024-02-16T14:42:52;8.83;;;8.13;;
17566;SDS011;8901;52.088;5.084;2024-02-16T14:45:21;9.20;;;8.40;;
17566;SDS011;8901;52.088;5.084;2024-02-16T14:47:49;8.70;;;8.00;;
17566;SDS011;8901;52.088;5.084;2024-02-16T14:50:16;10.07;;;9.17;;
17566;SDS011;8901;52.088;5.084;2024-02-16T14:52:44;10.47;;;9.07;;
17566;SDS011;8901;52.088;5.084;2024-02-16T14:55:11;10.47;;;9.37;;
17566;SDS011;8901;52.088;5.084;2024-02-16T14:57:38;10.53;;;9.47;;
17566;SDS011;8901;52.088;5.084;2024-02-16T15:00:06;10.60;;;9.50;;
17566;SDS011;8901;52.088;5.084;2024-02-16T15:02:35;9.83;;;8.83;;